CTF3 weather

Causapscal Airport
Causapscal, Quebec, Canada

Public forecast

Using degrees Celsius for public forecast. Weather courtesy of forecast.io.

Closest aviation weather report (METAR) to Causapscal Airport

Closest report is Mont Joli Airport, 42.1 nm (77.9 km) WNW. Retrieved 2019/10/15 19:00 UTC (54 minutes ago):

CYYY 151900Z 26013KT 15SM FEW035 10/04 A2993 RMK CU2 SLP137

Closest aviation forecast (TAF) to Causapscal Airport

Closest forecast is Mont Joli Airport, 42.1 nm (77.9 km) WNW. Retrieved 2019/10/15 20:00 UTC (0 seconds ago):

TAF CYYY 151938Z 1520/1608 26013KT P6SM FEW040 BECMG 1600/1602 21012KT RMK NXT FCST BY 160200Z